Time;durP1;ratioP1;P1;durP2;ratioP2;P2;SDS_P1;SDS_P2;PMS_P1;PMS_P2;Temp;Humidity;BMP_temperature;BMP_pressure;BME280_temperature;BME280_humidity;BME280_pressure;Samples;Min_cycle;Max_cycle;Signal;HPM_P1;HPM_P2
2023/09/04 00:00:56;;;;;;;7.00;3.30;;;17.10;76.10;;;;;;4759490;30;20079;-95
2023/09/04 00:03:25;;;;;;;7.03;3.30;;;17.10;75.90;;;;;;4744918;30;20055;-95
2023/09/04 00:05:53;;;;;;;7.03;2.83;;;17.10;76.20;;;;;;4744639;30;20056;-94
2023/09/04 00:08:20;;;;;;;6.47;3.13;;;17.10;76.30;;;;;;4759369;30;20094;-95
2023/09/04 00:10:48;;;;;;;8.90;3.75;;;17.10;76.30;;;;;;4759314;30;20052;-94
2023/09/04 00:13:16;;;;;;;8.75;3.50;;;17.10;76.10;;;;;;4759035;30;20519;-94
2023/09/04 00:15:43;;;;;;;7.88;3.17;;;17.10;75.80;;;;;;4758822;30;20147;-94
2023/09/04 00:18:11;;;;;;;8.98;3.65;;;17.10;75.70;;;;;;4759002;30;20051;-93
2023/09/04 00:20:38;;;;;;;9.97;3.83;;;17.10;75.30;;;;;;4758863;30;20147;-93
2023/09/04 00:23:05;;;;;;;10.75;3.70;;;17.20;75.20;;;;;;4758777;30;20388;-93
2023/09/04 00:25:32;;;;;;;8.48;4.35;;;17.10;75.90;;;;;;4758827;30;20060;-93
2023/09/04 00:27:59;;;;;;;9.73;3.70;;;17.00;76.20;;;;;;4758732;30;20116;-94
2023/09/04 00:30:26;;;;;;;9.77;4.03;;;17.10;76.00;;;;;;4758776;30;20102;-94
2023/09/04 00:32:54;;;;;;;9.00;4.20;;;17.10;76.40;;;;;;4744601;30;20091;-93
2023/09/04 00:35:22;;;;;;;9.85;4.28;;;17.10;76.20;;;;;;4759100;30;20105;-93
2023/09/04 00:37:49;;;;;;;7.05;3.58;;;17.10;75.70;;;;;;4744471;30;20119;-93
2023/09/04 00:40:16;;;;;;;8.40;4.28;;;17.00;76.00;;;;;;4743802;30;20070;-94
2023/09/04 00:42:43;;;;;;;10.05;4.05;;;17.10;76.20;;;;;;4744311;30;20055;-95
2023/09/04 00:45:14;;;;;;;8.50;3.97;;;17.10;76.40;;;;;;4758694;30;20052;-94
2023/09/04 00:47:43;;;;;;;8.38;3.65;;;17.10;76.80;;;;;;4758783;30;20055;-94
2023/09/04 00:50:22;;;;;;;8.85;3.90;;;17.10;76.60;;;;;;4743729;30;20503;-94
2023/09/04 00:52:52;;;;;;;7.88;3.92;;;17.10;76.30;;;;;;4743877;30;20055;-94
2023/09/04 00:55:19;;;;;;;8.07;4.30;;;17.10;76.10;;;;;;4742508;30;20511;-94
2023/09/04 00:57:47;;;;;;;14.17;4.23;;;17.10;76.10;;;;;;4758255;30;20056;-94
2023/09/04 01:00:19;;;;;;;10.38;3.72;;;17.10;75.80;;;;;;4743846;30;20450;-94
2023/09/04 01:02:46;;;;;;;8.85;3.83;;;17.10;75.70;;;;;;4758086;30;20064;-94
2023/09/04 01:05:14;;;;;;;9.27;3.97;;;17.10;75.80;;;;;;4758178;30;20047;-94
2023/09/04 01:07:42;;;;;;;7.95;3.92;;;17.20;75.80;;;;;;4758548;30;20090;-94
2023/09/04 01:10:12;;;;;;;10.10;4.10;;;17.20;75.90;;;;;;4743684;30;20097;-94
2023/09/04 01:13:04;;;;;;;7.35;3.97;;;17.20;76.20;;;;;;4743786;30;20142;-94
2023/09/04 01:15:32;;;;;;;10.07;3.88;;;17.20;76.40;;;;;;4743302;30;20079;-95
2023/09/04 01:18:01;;;;;;;10.07;3.88;;;17.20;76.40;;;;;;4743344;30;20515;-94
2023/09/04 01:20:29;;;;;;;8.35;3.85;;;17.20;76.10;;;;;;4743421;30;20074;-94
2023/09/04 01:22:57;;;;;;;8.43;4.17;;;17.10;76.20;;;;;;4743401;30;20523;-94
2023/09/04 01:25:47;;;;;;;8.93;4.38;;;17.10;76.40;;;;;;4743107;30;20051;-92
2023/09/04 01:28:42;;;;;;;9.48;4.47;;;17.00;75.80;;;;;;4756578;30;20060;-94
2023/09/04 01:31:18;;;;;;;9.60;4.10;;;17.00;76.00;;;;;;4757614;30;20058;-95
2023/09/04 01:33:50;;;;;;;8.82;4.45;;;17.00;75.80;;;;;;4743332;30;20056;-93
2023/09/04 01:36:18;;;;;;;8.30;4.30;;;16.90;75.80;;;;;;4743081;30;20052;-93
2023/09/04 01:38:46;;;;;;;7.72;3.78;;;16.80;76.30;;;;;;4743312;30;20342;-93
2023/09/04 01:41:15;;;;;;;8.57;4.30;;;16.90;76.30;;;;;;4757549;30;20082;-94
2023/09/04 01:43:42;;;;;;;9.10;4.28;;;16.90;76.10;;;;;;4742872;30;20052;-93
2023/09/04 01:46:09;;;;;;;9.07;4.53;;;16.80;76.00;;;;;;4742912;30;20055;-94
2023/09/04 01:48:36;;;;;;;8.63;4.20;;;16.80;76.20;;;;;;4742843;30;20066;-93
2023/09/04 01:51:03;;;;;;;8.23;3.80;;;16.80;76.00;;;;;;4757290;30;20087;-93
2023/09/04 01:53:31;;;;;;;7.72;3.95;;;16.90;76.10;;;;;;4742882;30;20052;-93
2023/09/04 01:55:59;;;;;;;9.68;4.55;;;16.90;76.00;;;;;;4742811;30;20090;-94
2023/09/04 01:58:28;;;;;;;8.68;4.05;;;16.80;75.80;;;;;;4743552;30;20054;-93
2023/09/04 02:09:27;;;;;;;14.45;4.68;;;16.70;76.20;;;;;;4738104;30;20062;-92
2023/09/04 02:11:55;;;;;;;9.98;4.78;;;16.50;76.70;;;;;;4721980;30;20052;-92
2023/09/04 02:14:23;;;;;;;11.05;5.03;;;16.50;77.00;;;;;;4728297;30;20050;-92
2023/09/04 02:16:50;;;;;;;10.43;4.63;;;16.60;76.80;;;;;;4719426;30;20515;-91
2023/09/04 02:19:16;;;;;;;11.48;5.05;;;16.60;76.80;;;;;;4704164;30;20044;-93
2023/09/04 02:21:44;;;;;;;8.50;4.70;;;16.60;76.50;;;;;;4718687;30;20049;-92
2023/09/04 02:24:11;;;;;;;10.68;4.93;;;16.60;76.90;;;;;;4690181;30;20499;-93
2023/09/04 02:26:38;;;;;;;8.50;3.90;;;16.60;76.80;;;;;;4718829;30;20053;-93
2023/09/04 02:29:05;;;;;;;10.90;4.40;;;16.70;76.80;;;;;;4718842;30;20405;-92
2023/09/04 02:31:32;;;;;;;9.43;4.22;;;16.70;76.70;;;;;;4704143;30;20155;-92
2023/09/04 02:33:59;;;;;;;8.65;4.32;;;16.60;76.00;;;;;;4704214;30;20088;-93
2023/09/04 02:36:26;;;;;;;9.68;4.40;;;16.60;76.00;;;;;;4704018;30;20053;-93
2023/09/04 02:38:53;;;;;;;8.77;3.85;;;16.60;76.00;;;;;;4718865;30;20111;-93
2023/09/04 02:41:20;;;;;;;9.47;3.80;;;16.70;76.10;;;;;;4718374;30;20081;-93
2023/09/04 02:43:47;;;;;;;8.25;3.55;;;16.70;76.00;;;;;;4718650;30;20053;-93
2023/09/04 02:46:14;;;;;;;8.98;3.92;;;16.60;75.60;;;;;;4704116;30;20063;-93
2023/09/04 02:48:41;;;;;;;8.20;4.03;;;16.60;75.70;;;;;;4704004;30;20061;-93
2023/09/04 02:51:08;;;;;;;12.38;3.92;;;16.60;75.90;;;;;;4704143;30;20063;-93
2023/09/04 02:53:35;;;;;;;8.87;3.83;;;16.60;75.70;;;;;;4718316;30;20057;-93
2023/09/04 02:56:03;;;;;;;12.63;4.35;;;16.70;75.90;;;;;;4703749;30;20061;-93
2023/09/04 02:58:30;;;;;;;6.57;3.30;;;16.70;75.70;;;;;;4717917;30;20097;-93
2023/09/04 03:00:57;;;;;;;10.35;3.80;;;16.80;75.50;;;;;;4703891;30;20072;-93
2023/09/04 03:03:24;;;;;;;8.35;3.35;;;16.80;75.30;;;;;;4718037;30;20056;-94
2023/09/04 03:05:52;;;;;;;8.63;3.80;;;16.80;75.20;;;;;;4704249;30;20416;-93
2023/09/04 03:08:19;;;;;;;9.13;3.60;;;16.80;75.10;;;;;;4718153;30;20045;-93
2023/09/04 03:10:46;;;;;;;8.82;3.58;;;16.80;75.00;;;;;;4704649;30;20117;-94
2023/09/04 03:13:13;;;;;;;8.70;3.58;;;16.80;75.00;;;;;;4703905;30;20064;-93
2023/09/04 03:15:40;;;;;;;8.55;3.92;;;16.80;75.30;;;;;;4703778;30;20053;-93
2023/09/04 03:18:09;;;;;;;10.27;3.70;;;16.80;75.50;;;;;;4703103;30;20109;-94
2023/09/04 03:20:37;;;;;;;8.77;3.67;;;16.80;75.40;;;;;;4717606;30;20060;-94
2023/09/04 03:23:04;;;;;;;9.40;3.92;;;16.70;75.50;;;;;;4717880;30;20472;-92
2023/09/04 03:25:32;;;;;;;9.70;3.60;;;16.70;75.40;;;;;;4703491;30;20088;-93
2023/09/04 03:27:59;;;;;;;9.30;3.58;;;16.60;75.30;;;;;;4717640;30;20049;-93
2023/09/04 03:30:27;;;;;;;10.03;3.87;;;16.60;75.50;;;;;;4703499;30;20061;-93
2023/09/04 03:32:54;;;;;;;8.27;3.42;;;16.50;75.50;;;;;;4717598;30;20144;-92
2023/09/04 03:35:23;;;;;;;8.80;3.20;;;16.50;75.60;;;;;;4703466;30;20061;-92
2023/09/04 03:37:50;;;;;;;7.65;3.10;;;16.50;75.40;;;;;;4717742;30;20132;-93
2023/09/04 03:40:22;;;;;;;10.20;3.30;;;16.50;75.50;;;;;;4702978;30;20056;-93
2023/09/04 03:42:50;;;;;;;9.60;3.30;;;16.50;75.90;;;;;;4703482;30;20053;-93
2023/09/04 03:45:17;;;;;;;10.35;3.55;;;16.40;75.50;;;;;;4717764;30;20049;-93
2023/09/04 03:47:46;;;;;;;8.63;3.08;;;16.50;75.60;;;;;;4703651;30;20057;-93
2023/09/04 03:50:13;;;;;;;10.32;3.38;;;16.50;75.80;;;;;;4717834;30;20148;-92
2023/09/04 03:52:41;;;;;;;7.50;3.33;;;16.50;75.30;;;;;;4717587;30;20053;-93
2023/09/04 03:55:10;;;;;;;7.67;3.20;;;16.50;75.40;;;;;;4703202;30;20530;-93
2023/09/04 03:57:39;;;;;;;7.35;3.20;;;16.50;75.60;;;;;;4703213;30;20049;-93
2023/09/04 04:00:16;;;;;;;9.32;3.50;;;16.50;75.40;;;;;;4717988;30;20060;-93
2023/09/04 04:02:47;;;;;;;7.82;3.10;;;16.40;75.40;;;;;;4703309;30;20081;-93
2023/09/04 04:05:16;;;;;;;8.80;3.28;;;16.50;75.80;;;;;;4703113;30;20115;-93
2023/09/04 04:07:44;;;;;;;9.73;3.10;;;16.50;75.50;;;;;;4717628;30;20059;-92
2023/09/04 04:10:11;;;;;;;8.57;3.10;;;16.50;75.30;;;;;;4717719;30;20061;-93
2023/09/04 04:12:39;;;;;;;10.52;3.38;;;16.50;75.40;;;;;;4718207;30;20053;-93
2023/09/04 04:15:07;;;;;;;8.60;3.83;;;16.60;75.30;;;;;;4703270;30;20057;-93
2023/09/04 04:17:35;;;;;;;8.10;3.50;;;16.50;75.50;;;;;;4717612;30;20057;-93
2023/09/04 04:20:07;;;;;;;8.40;3.43;;;16.50;75.30;;;;;;4702962;30;20050;-92
2023/09/04 04:22:34;;;;;;;8.90;3.40;;;16.50;75.30;;;;;;4702899;30;20107;-93
2023/09/04 04:25:01;;;;;;;8.65;3.13;;;16.50;75.40;;;;;;4717186;30;20056;-93
2023/09/04 04:27:28;;;;;;;7.68;3.60;;;16.50;75.60;;;;;;4703097;30;20092;-93
2023/09/04 04:29:55;;;;;;;10.27;3.38;;;16.50;75.60;;;;;;4706247;30;20057;-92
2023/09/04 04:32:26;;;;;;;7.67;3.60;;;16.60;75.70;;;;;;4720450;30;20057;-93
2023/09/04 04:34:53;;;;;;;7.85;3.22;;;16.50;75.40;;;;;;4706331;30;20053;-93
2023/09/04 04:37:21;;;;;;;6.45;3.25;;;16.50;75.10;;;;;;4720057;30;20049;-93
2023/09/04 04:39:50;;;;;;;9.07;3.20;;;16.40;75.30;;;;;;4706608;30;20424;-93
2023/09/04 04:42:17;;;;;;;8.38;3.45;;;16.40;75.30;;;;;;4720263;30;20088;-93
2023/09/04 04:44:45;;;;;;;10.27;3.40;;;16.30;75.40;;;;;;4706445;30;20408;-92
2023/09/04 04:47:13;;;;;;;7.22;3.42;;;16.30;75.80;;;;;;4720319;30;20053;-94
2023/09/04 04:49:42;;;;;;;8.45;3.65;;;16.30;75.90;;;;;;4705809;30;20118;-92
2023/09/04 04:52:09;;;;;;;8.88;3.35;;;16.30;75.80;;;;;;4720733;30;20524;-92
2023/09/04 04:54:36;;;;;;;8.45;2.95;;;16.30;75.70;;;;;;4720520;30;20088;-92
2023/09/04 04:57:04;;;;;;;6.60;3.03;;;16.30;75.60;;;;;;4720806;30;20132;-92
2023/09/04 04:59:32;;;;;;;8.43;3.08;;;16.30;75.60;;;;;;4719841;30;20057;-93
2023/09/04 05:02:00;;;;;;;8.00;2.90;;;16.30;75.90;;;;;;4726735;30;20410;-92
2023/09/04 05:04:28;;;;;;;12.25;3.40;;;16.30;75.70;;;;;;4714759;30;20048;-92
2023/09/04 05:06:56;;;;;;;11.93;3.70;;;16.40;75.60;;;;;;4716769;30;20049;-91
2023/09/04 05:09:23;;;;;;;7.17;3.30;;;16.40;75.90;;;;;;4708518;30;20053;-91
2023/09/04 05:11:51;;;;;;;8.77;3.10;;;16.30;75.30;;;;;;4710320;30;20382;-92
2023/09/04 05:14:18;;;;;;;8.25;3.22;;;16.20;75.60;;;;;;4717100;30;20049;-92
2023/09/04 05:16:45;;;;;;;10.55;3.33;;;16.20;75.90;;;;;;4702449;30;20054;-91
2023/09/04 05:19:12;;;;;;;8.25;3.45;;;16.30;76.00;;;;;;4702339;30;20096;-91
2023/09/04 05:21:39;;;;;;;8.13;3.33;;;16.20;76.10;;;;;;4696251;30;20058;-91
2023/09/04 05:24:22;;;;;;;7.82;3.22;;;16.20;76.30;;;;;;4709898;30;20061;-93
2023/09/04 05:26:50;;;;;;;8.88;3.30;;;16.30;75.80;;;;;;4690619;30;20061;-88
2023/09/04 05:29:17;;;;;;;10.77;3.25;;;16.40;75.80;;;;;;4718175;30;20431;-89
2023/09/04 05:31:44;;;;;;;7.28;3.13;;;16.30;75.50;;;;;;4720174;30;20060;-89
2023/09/04 05:34:12;;;;;;;9.20;3.30;;;16.40;75.60;;;;;;4718145;30;20456;-88
2023/09/04 05:36:39;;;;;;;8.02;3.28;;;16.50;75.70;;;;;;4719240;30;20045;-89
2023/09/04 05:39:06;;;;;;;9.43;3.42;;;16.60;75.70;;;;;;4710416;30;20578;-89
2023/09/04 05:41:33;;;;;;;7.50;2.90;;;16.60;75.00;;;;;;4716196;30;20040;-89
2023/09/04 05:44:00;;;;;;;9.73;3.50;;;16.50;74.60;;;;;;4719889;30;20496;-89
2023/09/04 05:46:28;;;;;;;7.63;3.97;;;16.50;74.70;;;;;;4721447;30;20450;-88
2023/09/04 05:48:55;;;;;;;9.93;3.50;;;16.30;74.60;;;;;;4719807;30;20053;-92
2023/09/04 05:51:22;;;;;;;10.55;3.70;;;16.30;74.80;;;;;;4722204;30;20048;-91
2023/09/04 05:53:52;;;;;;;8.15;2.85;;;16.30;75.00;;;;;;4722379;30;20052;-92
2023/09/04 05:56:19;;;;;;;8.70;3.75;;;16.20;75.40;;;;;;4722410;30;20049;-93
2023/09/04 05:58:49;;;;;;;7.20;3.40;;;16.20;75.30;;;;;;4722662;30;20056;-93
2023/09/04 06:01:18;;;;;;;9.27;3.72;;;16.30;75.20;;;;;;4722923;30;20393;-94
2023/09/04 06:03:46;;;;;;;9.60;3.85;;;16.30;75.00;;;;;;4728612;30;20068;-95
2023/09/04 06:06:14;;;;;;;8.70;3.35;;;16.40;74.60;;;;;;4739671;30;20129;-95
2023/09/04 06:08:41;;;;;;;8.68;3.40;;;16.40;74.80;;;;;;4739528;30;20414;-96
2023/09/04 06:11:09;;;;;;;10.63;3.77;;;16.50;74.70;;;;;;4739991;30;20058;-95
2023/09/04 06:13:36;;;;;;;8.93;3.47;;;16.50;74.50;;;;;;4739337;30;20067;-96
2023/09/04 06:16:03;;;;;;;7.72;3.78;;;16.60;74.20;;;;;;4739641;30;20091;-95
2023/09/04 06:18:30;;;;;;;12.15;3.78;;;16.60;73.00;;;;;;4740575;30;20044;-96
2023/09/04 06:20:58;;;;;;;10.05;3.65;;;16.50;73.40;;;;;;4722399;30;20048;-91
2023/09/04 06:23:25;;;;;;;8.73;4.13;;;16.50;74.10;;;;;;4726565;30;20297;-91
2023/09/04 06:25:52;;;;;;;9.50;4.15;;;16.50;73.60;;;;;;4725403;30;20048;-90
2023/09/04 06:28:20;;;;;;;9.48;4.20;;;16.60;73.60;;;;;;4720141;30;20069;-91
2023/09/04 06:30:49;;;;;;;9.98;3.88;;;16.60;73.70;;;;;;4717510;30;20056;-88
2023/09/04 06:33:16;;;;;;;9.40;4.15;;;16.70;73.00;;;;;;4728435;30;20083;-88
2023/09/04 06:35:43;;;;;;;8.77;4.40;;;16.70;73.40;;;;;;4727394;30;20051;-89
2023/09/04 06:38:12;;;;;;;9.82;4.05;;;16.80;72.90;;;;;;4710845;30;20045;-91
2023/09/04 06:40:39;;;;;;;7.05;3.70;;;16.80;72.70;;;;;;4722699;30;20111;-91
2023/09/04 06:43:07;;;;;;;9.30;3.90;;;16.80;72.90;;;;;;4722953;30;20048;-91
2023/09/04 06:45:37;;;;;;;7.93;4.00;;;16.70;73.00;;;;;;4726625;30;20853;-91
2023/09/04 06:48:07;;;;;;;10.97;3.87;;;16.70;72.50;;;;;;4711954;30;20059;-90
2023/09/04 06:50:34;;;;;;;8.15;3.50;;;16.70;73.00;;;;;;4727954;30;20052;-90
2023/09/04 06:53:01;;;;;;;8.57;4.00;;;16.80;72.70;;;;;;4723850;30;20067;-90
2023/09/04 06:55:28;;;;;;;8.45;3.63;;;16.80;72.70;;;;;;4729717;30;20463;-90
2023/09/04 06:57:56;;;;;;;9.85;3.60;;;16.90;72.40;;;;;;4727441;30;20048;-90
2023/09/04 07:00:23;;;;;;;8.43;3.00;;;16.80;72.70;;;;;;4726875;30;20040;-90
2023/09/04 07:02:50;;;;;;;8.35;3.17;;;16.90;72.30;;;;;;4711079;30;20110;-90
2023/09/04 07:05:17;;;;;;;7.10;2.88;;;17.00;72.00;;;;;;4723133;30;20056;-90
2023/09/04 07:07:47;;;;;;;8.52;3.03;;;16.90;71.90;;;;;;4716712;30;20052;-89
2023/09/04 07:10:14;;;;;;;8.95;3.08;;;17.00;72.00;;;;;;4725597;30;20057;-90
2023/09/04 07:12:41;;;;;;;8.00;2.43;;;17.00;71.60;;;;;;4727325;30;20048;-90
2023/09/04 07:15:09;;;;;;;9.18;2.80;;;17.00;72.00;;;;;;4724612;30;20076;-89
2023/09/04 07:17:36;;;;;;;8.73;2.92;;;16.90;71.70;;;;;;4732157;30;20139;-90
2023/09/04 07:20:04;;;;;;;6.70;2.85;;;16.90;72.60;;;;;;4723922;30;20044;-89
2023/09/04 07:22:31;;;;;;;8.55;2.72;;;16.80;71.50;;;;;;4721242;30;20107;-89
2023/09/04 07:24:58;;;;;;;8.83;2.90;;;16.90;71.80;;;;;;4710698;30;20048;-89
2023/09/04 07:27:26;;;;;;;7.55;3.00;;;17.00;71.70;;;;;;4718989;30;20059;-89
2023/09/04 07:29:54;;;;;;;8.75;2.80;;;17.00;71.00;;;;;;4720739;30;20060;-89
2023/09/04 07:32:21;;;;;;;8.25;2.90;;;17.10;71.20;;;;;;4722925;30;20503;-89
2023/09/04 07:34:48;;;;;;;9.38;2.88;;;17.30;70.80;;;;;;4729265;30;20135;-90
2023/09/04 07:37:15;;;;;;;12.43;3.10;;;17.40;71.40;;;;;;4711841;30;20055;-90
2023/09/04 07:39:42;;;;;;;9.93;3.17;;;17.50;70.30;;;;;;4721384;30;20057;-89
2023/09/04 07:42:09;;;;;;;8.52;3.30;;;17.50;70.00;;;;;;4726477;30;20046;-90
2023/09/04 07:44:36;;;;;;;8.27;2.97;;;17.50;70.10;;;;;;4719980;30;20131;-90
2023/09/04 07:47:03;;;;;;;7.97;2.30;;;17.50;70.70;;;;;;4728384;30;20510;-90
2023/09/04 07:49:30;;;;;;;6.37;2.53;;;17.50;71.20;;;;;;4721173;30;20060;-90
2023/09/04 07:51:58;;;;;;;8.38;2.30;;;17.50;70.90;;;;;;4741226;30;20040;-89
2023/09/04 07:54:25;;;;;;;7.75;2.20;;;17.50;69.50;;;;;;4728499;30;20051;-90
2023/09/04 07:56:52;;;;;;;8.50;2.22;;;17.50;69.30;;;;;;4721365;30;20488;-90
2023/09/04 07:59:19;;;;;;;8.30;2.35;;;17.40;69.50;;;;;;4722632;30;20053;-90
2023/09/04 08:01:46;;;;;;;7.37;2.00;;;17.40;70.30;;;;;;4704426;30;20053;-90
2023/09/04 08:04:14;;;;;;;8.50;2.30;;;17.50;70.30;;;;;;4734281;30;20068;-90
2023/09/04 08:06:41;;;;;;;8.80;2.60;;;17.70;69.10;;;;;;4711601;30;20052;-89
2023/09/04 08:09:08;;;;;;;6.85;2.35;;;17.90;68.60;;;;;;4714460;30;20500;-90
2023/09/04 08:11:35;;;;;;;9.10;2.40;;;18.00;68.50;;;;;;4714330;30;20056;-87
2023/09/04 08:14:02;;;;;;;7.77;1.77;;;18.10;68.70;;;;;;4711182;30;20049;-87
2023/09/04 08:16:29;;;;;;;6.57;1.80;;;18.00;67.60;;;;;;4726964;30;20054;-87
2023/09/04 08:18:56;;;;;;;8.30;1.92;;;18.00;66.10;;;;;;4704303;30;20061;-87
2023/09/04 08:21:23;;;;;;;6.25;2.05;;;18.00;68.20;;;;;;4702994;30;20049;-87
2023/09/04 08:23:50;;;;;;;8.38;2.60;;;18.00;68.10;;;;;;4715015;30;20106;-87
2023/09/04 08:26:17;;;;;;;5.97;2.20;;;18.00;68.70;;;;;;4713016;30;20111;-87
2023/09/04 08:28:44;;;;;;;7.25;2.30;;;18.10;68.90;;;;;;4710243;30;20522;-86
2023/09/04 08:31:11;;;;;;;6.00;1.98;;;18.10;68.50;;;;;;4714427;30;20107;-88
2023/09/04 08:33:39;;;;;;;6.20;2.03;;;18.20;67.90;;;;;;4720992;30;20052;-88
2023/09/04 08:36:06;;;;;;;6.88;1.90;;;18.20;69.40;;;;;;4716773;30;20051;-88
2023/09/04 08:38:33;;;;;;;6.17;1.93;;;18.30;68.70;;;;;;4713863;30;20057;-88
2023/09/04 08:41:04;;;;;;;6.28;2.00;;;18.30;67.30;;;;;;4702392;30;20132;-88
2023/09/04 08:43:32;;;;;;;8.13;2.45;;;18.30;68.70;;;;;;4711892;30;20088;-88
2023/09/04 08:46:00;;;;;;;6.28;1.67;;;18.50;68.30;;;;;;4712737;30;20045;-88
2023/09/04 08:48:32;;;;;;;6.88;2.00;;;18.60;67.00;;;;;;4715619;30;20076;-90
2023/09/04 08:50:59;;;;;;;7.77;2.30;;;18.60;66.20;;;;;;4715639;30;20056;-90
2023/09/04 08:53:27;;;;;;;4.90;1.70;;;18.60;66.00;;;;;;4715210;30;20056;-88
2023/09/04 08:55:57;;;;;;;7.57;2.10;;;18.70;65.50;;;;;;4712688;30;20061;-96
2023/09/04 08:58:29;;;;;;;6.70;2.20;;;18.60;65.30;;;;;;4701117;30;20057;-95
2023/09/04 09:00:59;;;;;;;5.57;2.08;;;18.60;66.90;;;;;;4700671;30;20060;-96
2023/09/04 09:03:30;;;;;;;6.33;1.90;;;18.60;65.00;;;;;;4716262;30;20065;-96
2023/09/04 09:05:59;;;;;;;6.50;1.88;;;18.60;66.50;;;;;;4700282;30;20116;-96
2023/09/04 09:08:30;;;;;;;6.22;1.92;;;18.90;66.70;;;;;;4702315;30;20061;-95
2023/09/04 09:10:58;;;;;;;6.43;1.75;;;19.10;64.90;;;;;;4703032;30;20080;-95
2023/09/04 09:13:30;;;;;;;6.93;2.22;;;19.20;63.80;;;;;;4705715;30;20064;-96
2023/09/04 09:15:57;;;;;;;5.90;2.00;;;19.30;62.90;;;;;;4703340;30;20041;-95
2023/09/04 09:19:21;;;;;;;5.38;2.08;;;19.30;63.50;;;;;;5251298;24;20128;-96
2023/09/04 09:21:52;;;;;;;5.50;1.83;;;19.50;66.00;;;;;;4753985;30;20052;-96
2023/09/04 09:24:27;;;;;;;7.57;2.00;;;19.60;62.00;;;;;;4767234;30;20060;-96
2023/09/04 09:27:04;;;;;;;6.20;1.75;;;19.70;62.10;;;;;;4771388;30;20124;-96
2023/09/04 09:29:34;;;;;;;6.60;2.17;;;19.80;62.10;;;;;;4741426;30;20056;-96
2023/09/04 09:32:05;;;;;;;6.65;2.25;;;20.00;62.00;;;;;;4772585;30;20077;-96
2023/09/04 09:34:35;;;;;;;6.30;2.45;;;19.90;62.30;;;;;;4759038;30;20075;-95
2023/09/04 09:37:08;;;;;;;6.22;2.05;;;19.70;63.30;;;;;;4771691;30;20047;-96
2023/09/04 09:39:42;;;;;;;5.20;1.88;;;19.60;63.60;;;;;;4759895;30;20071;-96
2023/09/04 09:42:31;;;;;;;8.03;2.10;;;19.60;65.30;;;;;;4789026;30;20058;-96
2023/09/04 09:45:00;;;;;;;6.03;2.03;;;19.90;63.70;;;;;;4757272;30;20051;-96
2023/09/04 09:47:35;;;;;;;7.05;1.70;;;19.90;62.50;;;;;;4772135;30;20052;-96
2023/09/04 09:50:10;;;;;;;5.72;2.00;;;20.00;63.60;;;;;;4757761;30;20052;-96
2023/09/04 09:53:01;;;;;;;6.82;2.08;;;20.00;62.20;;;;;;4760065;30;20052;-95
2023/09/04 09:55:36;;;;;;;10.67;2.17;;;20.10;63.50;;;;;;4770321;30;20487;-96
2023/09/04 09:58:16;;;;;;;10.30;1.92;;;20.10;63.60;;;;;;4758085;30;20079;-96
2023/09/04 10:00:44;;;;;;;6.18;1.95;;;20.20;64.40;;;;;;4770096;30;20042;-95
2023/09/04 10:03:13;;;;;;;7.15;2.22;;;20.40;62.40;;;;;;4771056;30;20059;-96
2023/09/04 10:05:44;;;;;;;5.63;2.10;;;20.60;62.30;;;;;;4755758;30;20052;-96
2023/09/04 10:08:23;;;;;;;4.10;1.53;;;20.60;59.90;;;;;;4771300;30;20059;-96
2023/09/04 10:11:13;;;;;;;7.20;1.85;;;20.60;60.00;;;;;;4759486;30;20149;-96
2023/09/04 10:13:59;;;;;;;6.45;1.90;;;20.50;58.20;;;;;;4755881;30;20438;-96
2023/09/04 10:16:36;;;;;;;6.53;1.88;;;20.50;58.90;;;;;;4759086;30;20052;-96
2023/09/04 10:19:30;;;;;;;6.32;2.00;;;20.50;58.30;;;;;;4762787;30;20051;-96
2023/09/04 10:26:41;;;;;;;4.25;1.30;;;20.70;58.50;;;;;;4788535;30;20108;-96
2023/09/04 10:29:17;;;;;;;5.07;1.80;;;20.60;56.80;;;;;;4771973;30;20059;-96
2023/09/04 10:31:51;;;;;;;4.82;1.58;;;20.50;57.70;;;;;;4760571;30;20048;-96
2023/09/04 10:34:21;;;;;;;5.80;1.50;;;20.30;57.30;;;;;;4760247;30;20047;-96
2023/09/04 10:36:49;;;;;;;3.93;1.47;;;20.30;57.60;;;;;;4741692;30;20060;-96
2023/09/04 10:39:19;;;;;;;4.95;1.60;;;20.40;58.30;;;;;;4757623;30;20063;-96
2023/09/04 10:41:51;;;;;;;7.25;1.70;;;20.40;58.30;;;;;;4758612;30;20056;-96
2023/09/04 10:45:10;;;;;;;5.68;1.45;;;20.20;58.50;;;;;;4772842;30;20124;-96
2023/09/04 10:47:47;;;;;;;5.30;1.55;;;20.10;58.40;;;;;;4773383;30;20047;-96
2023/09/04 10:55:13;;;;;;;6.35;1.60;;;20.60;57.00;;;;;;4788521;30;20079;-96
2023/09/04 10:58:04;;;;;;;5.25;1.50;;;20.40;56.90;;;;;;4789811;30;20048;-96
2023/09/04 11:03:43;;;;;;;4.97;1.35;;;20.00;56.00;;;;;;4791919;29;20063;-96
2023/09/04 11:06:26;;;;;;;5.13;1.40;;;20.00;57.10;;;;;;4794733;30;20066;-96
2023/09/04 11:09:39;;;;;;;5.38;1.63;;;20.20;58.60;;;;;;4858360;24;20043;-96
2023/09/04 11:12:25;;;;;;;5.43;1.10;;;20.50;58.00;;;;;;4779644;30;20070;-96
2023/09/04 11:15:13;;;;;;;4.95;1.17;;;20.60;56.30;;;;;;4789924;30;20070;-96
2023/09/04 11:17:51;;;;;;;5.32;1.50;;;20.90;55.10;;;;;;4776954;30;20051;-96
2023/09/04 11:20:49;;;;;;;5.70;1.90;;;21.10;55.20;;;;;;4806817;30;20050;-96
2023/09/04 11:23:23;;;;;;;5.50;1.58;;;21.30;54.50;;;;;;4779956;30;20126;-96
2023/09/04 11:31:36;;;;;;;5.65;1.48;;;21.50;51.90;;;;;;4810990;30;20103;-96
2023/09/04 11:39:19;;;;;;;6.37;1.70;;;21.00;53.90;;;;;;4811632;29;20103;-96
2023/09/04 11:42:44;;;;;;;4.50;1.33;;;21.30;54.40;;;;;;5777637;24;20057;-96
2023/09/04 11:59:21;;;;;;;5.67;1.43;;;21.60;53.00;;;;;;4799001;30;20070;-96
2023/09/04 12:03:26;;;;;;;4.43;1.38;;;21.60;50.40;;;;;;4790656;30;20048;-96
2023/09/04 12:11:23;;;;;;;4.50;1.30;;;22.00;52.10;;;;;;4798242;30;20050;-96
2023/09/04 12:14:19;;;;;;;4.18;1.20;;;22.10;48.70;;;;;;4777618;30;20084;-96
2023/09/04 12:30:52;;;;;;;7.20;2.28;;;21.60;52.80;;;;;;4787334;30;20058;-96
2023/09/04 12:33:52;;;;;;;5.30;1.35;;;21.30;52.30;;;;;;4767774;30;20059;-95
2023/09/04 12:40:50;;;;;;;5.57;1.45;;;21.60;49.90;;;;;;4795251;30;20111;-96
2023/09/04 12:56:32;;;;;;;5.60;1.90;;;21.30;51.20;;;;;;4770969;30;20031;-96
2023/09/04 12:59:24;;;;;;;4.30;1.33;;;21.30;52.40;;;;;;4745478;30;20037;-96
2023/09/04 13:02:33;;;;;;;5.32;1.50;;;21.40;51.40;;;;;;4761243;30;20056;-96
2023/09/04 13:09:24;;;;;;;5.82;1.23;;;21.50;51.00;;;;;;4776795;30;20027;-96
2023/09/04 13:12:40;;;;;;;6.33;1.63;;;21.60;48.50;;;;;;4757718;30;20086;-96
2023/09/04 13:19:33;;;;;;;4.53;1.20;;;22.00;48.40;;;;;;4754203;30;20094;-96
2023/09/04 13:22:01;;;;;;;4.47;1.38;;;21.80;48.50;;;;;;4713623;30;20474;-95
2023/09/04 13:24:30;;;;;;;4.50;1.40;;;21.90;49.40;;;;;;4726718;30;20068;-95
2023/09/04 13:26:58;;;;;;;4.07;1.40;;;22.10;50.90;;;;;;4723190;30;20396;-95
2023/09/04 13:29:25;;;;;;;3.50;1.30;;;22.30;52.40;;;;;;4710395;30;20060;-96
2023/09/04 13:31:53;;;;;;;6.80;1.48;;;22.60;51.10;;;;;;4710712;30;20118;-95
2023/09/04 13:34:22;;;;;;;4.78;1.20;;;22.50;49.90;;;;;;4716858;30;20586;-96
2023/09/04 13:37:04;;;;;;;4.03;1.23;;;22.50;49.00;;;;;;4735735;30;20128;-95
2023/09/04 13:39:32;;;;;;;4.53;1.27;;;22.20;50.40;;;;;;4717677;30;20124;-94
2023/09/04 13:42:03;;;;;;;5.13;1.48;;;21.90;51.00;;;;;;4712402;30;20057;-96
2023/09/04 13:44:30;;;;;;;4.97;1.42;;;21.80;50.20;;;;;;4726853;30;20053;-95
2023/09/04 13:46:58;;;;;;;5.82;1.85;;;21.80;50.10;;;;;;4724166;30;20151;-95
2023/09/04 13:49:25;;;;;;;3.60;1.30;;;21.90;51.00;;;;;;4710542;30;20056;-95
2023/09/04 13:51:52;;;;;;;5.10;1.40;;;22.10;49.90;;;;;;4725124;30;20420;-95
2023/09/04 13:54:19;;;;;;;5.50;1.60;;;22.10;49.30;;;;;;4726761;30;20095;-96
2023/09/04 13:56:47;;;;;;;5.53;1.40;;;22.10;49.10;;;;;;4726869;30;20508;-95
2023/09/04 13:59:18;;;;;;;6.25;1.52;;;22.00;48.20;;;;;;4727572;30;20049;-96
2023/09/04 14:02:00;;;;;;;4.03;1.30;;;22.10;48.00;;;;;;5430755;24;20109;-96
2023/09/04 14:04:29;;;;;;;6.27;1.53;;;21.90;48.50;;;;;;4793195;29;20433;-96
2023/09/04 14:10:01;;;;;;;6.40;1.83;;;22.10;49.10;;;;;;4815650;24;20054;-96
2023/09/04 14:12:47;;;;;;;4.43;1.58;;;22.10;49.00;;;;;;4769360;30;20052;-96
2023/09/04 14:15:24;;;;;;;5.53;1.50;;;22.20;49.50;;;;;;4773877;30;20156;-96
2023/09/04 14:18:37;;;;;;;5.23;1.60;;;22.20;49.30;;;;;;4764345;30;20078;-90
2023/09/04 14:21:04;;;;;;;5.03;1.73;;;22.10;50.30;;;;;;4766290;30;20138;-90
2023/09/04 14:23:31;;;;;;;6.22;1.70;;;22.10;49.10;;;;;;4774483;30;20047;-90
2023/09/04 14:25:58;;;;;;;4.03;1.35;;;21.70;50.30;;;;;;4788869;30;20109;-90
2023/09/04 14:28:25;;;;;;;6.20;2.03;;;21.70;49.60;;;;;;4774008;30;20089;-91
2023/09/04 14:30:52;;;;;;;5.93;2.20;;;21.60;50.40;;;;;;4759091;30;20043;-91
2023/09/04 14:33:19;;;;;;;6.63;1.70;;;21.60;50.40;;;;;;4771689;30;20143;-91
2023/09/04 14:35:46;;;;;;;4.07;1.38;;;21.80;51.60;;;;;;4779420;30;20051;-91
2023/09/04 14:38:13;;;;;;;5.90;1.60;;;22.00;50.10;;;;;;4771849;30;20047;-91
2023/09/04 14:40:47;;;;;;;4.50;1.60;;;22.00;50.60;;;;;;4781693;30;20071;-90